Time;durP1;ratioP1;P1;durP2;ratioP2;P2;SDS_P1;SDS_P2;PMS_P1;PMS_P2;Temp;Humidity;BMP_temperature;BMP_pressure;BME280_temperature;BME280_humidity;BME280_pressure;Samples;Min_cycle;Max_cycle;Signal;HPM_P1;HPM_P2
2021/12/28 00:00:47;;;;;;;1.90;1.80;;;;;;;4.09;100.00;91728.66;4883046;29;20233;-71
2021/12/28 00:03:14;;;;;;;1.40;1.40;;;;;;;4.10;100.00;91735.31;4883479;29;20654;-72
2021/12/28 00:05:42;;;;;;;2.27;2.03;;;;;;;3.99;100.00;91737.34;4882664;29;20482;-72
2021/12/28 00:08:09;;;;;;;2.23;2.10;;;;;;;3.94;100.00;91738.34;4883087;29;20505;-73
2021/12/28 00:10:37;;;;;;;2.47;2.37;;;;;;;3.94;100.00;91745.84;4883850;29;20486;-72
2021/12/28 00:13:04;;;;;;;1.17;1.17;;;;;;;3.85;100.00;91743.63;4883475;29;20475;-72
2021/12/28 00:15:46;;;;;;;0.90;0.90;;;;;;;3.81;100.00;91744.59;4883881;29;20568;-72
2021/12/28 00:18:13;;;;;;;0.83;0.83;;;;;;;3.85;100.00;91746.13;4882757;29;20575;-73
2021/12/28 00:20:43;;;;;;;0.80;0.80;;;;;;;3.80;100.00;91745.44;4883315;29;20249;-73
2021/12/28 00:23:13;;;;;;;1.03;1.03;;;;;;;3.83;100.00;91735.38;4882697;29;20207;-73
2021/12/28 00:25:40;;;;;;;1.00;1.00;;;;;;;3.86;100.00;91730.25;4883373;29;20494;-73
2021/12/28 00:28:08;;;;;;;1.13;1.13;;;;;;;3.88;100.00;91739.34;4883273;29;20619;-73
2021/12/28 00:30:37;;;;;;;0.93;0.93;;;;;;;3.88;100.00;91733.53;4883326;29;20643;-73
2021/12/28 00:33:05;;;;;;;0.83;0.83;;;;;;;3.84;100.00;91732.81;4882467;29;20576;-73
2021/12/28 00:35:34;;;;;;;0.90;0.90;;;;;;;3.84;100.00;91741.97;4883435;29;20560;-73
2021/12/28 00:38:02;;;;;;;4.57;1.33;;;;;;;3.81;100.00;91735.41;4882345;29;20560;-73
2021/12/28 00:40:30;;;;;;;1.67;1.57;;;;;;;3.80;100.00;91730.47;4883087;29;20548;-73
2021/12/28 00:42:58;;;;;;;2.30;1.40;;;;;;;3.84;100.00;91732.81;4883840;29;20226;-72
2021/12/28 00:45:26;;;;;;;2.50;2.30;;;;;;;3.80;100.00;91736.28;4882137;29;20594;-73
2021/12/28 00:47:54;;;;;;;9.23;3.17;;;;;;;3.89;100.00;91745.97;4882420;29;20608;-73
2021/12/28 00:50:22;;;;;;;1.63;1.60;;;;;;;3.96;100.00;91747.41;4882752;29;20599;-73
2021/12/28 00:52:49;;;;;;;1.20;1.20;;;;;;;4.05;100.00;91754.63;4882452;29;20459;-73
2021/12/28 00:55:19;;;;;;;0.83;0.83;;;;;;;3.94;100.00;91754.16;4882918;29;20221;-73
2021/12/28 00:57:47;;;;;;;1.10;1.10;;;;;;;3.82;100.00;91749.53;4882345;29;20214;-72
2021/12/28 01:00:16;;;;;;;0.90;0.90;;;;;;;3.75;100.00;91748.09;4883046;29;20564;-72
2021/12/28 01:02:43;;;;;;;1.03;1.03;;;;;;;3.63;100.00;91749.28;4881618;29;20603;-73
2021/12/28 01:05:13;;;;;;;0.97;0.97;;;;;;;3.45;100.00;91724.88;4882766;29;20574;-73
2021/12/28 01:07:40;;;;;;;1.23;1.23;;;;;;;3.51;100.00;91743.84;4882375;29;20523;-73
2021/12/28 01:10:11;;;;;;;1.30;1.30;;;;;;;3.52;100.00;91747.97;4881790;29;20218;-73
2021/12/28 01:12:39;;;;;;;0.63;0.63;;;;;;;3.50;100.00;91742.22;4881665;29;20603;-73
2021/12/28 01:15:08;;;;;;;0.70;0.70;;;;;;;3.55;100.00;91741.19;4882375;29;20497;-73
2021/12/28 01:17:35;;;;;;;1.10;1.10;;;;;;;3.51;100.00;91738.84;4881680;29;20231;-73
2021/12/28 01:20:04;;;;;;;0.70;0.70;;;;;;;3.49;100.00;91753.09;4882569;29;20624;-72
2021/12/28 01:22:33;;;;;;;0.60;0.60;;;;;;;3.50;100.00;91747.19;4881951;29;20588;-72
2021/12/28 01:25:00;;;;;;;1.17;1.17;;;;;;;3.47;100.00;91738.13;4881955;29;20254;-72
2021/12/28 01:27:27;;;;;;;0.90;0.90;;;;;;;3.54;100.00;91743.78;4882838;29;20614;-72
2021/12/28 01:29:55;;;;;;;1.47;1.47;;;;;;;3.60;100.00;91748.56;4881559;29;20237;-73
2021/12/28 01:32:22;;;;;;;3.07;1.37;;;;;;;3.61;100.00;91740.19;4882331;29;20560;-73
2021/12/28 01:34:49;;;;;;;1.13;1.13;;;;;;;3.68;100.00;91744.97;4881544;29;20521;-73
2021/12/28 01:37:16;;;;;;;0.93;0.93;;;;;;;3.62;100.00;91739.34;4881859;29;20198;-73
2021/12/28 01:39:45;;;;;;;0.77;0.77;;;;;;;3.53;100.00;91732.97;4881563;29;20199;-72
2021/12/28 01:42:12;;;;;;;0.87;0.87;;;;;;;3.47;100.00;91743.13;4881870;29;20478;-72
2021/12/28 01:44:40;;;;;;;1.37;1.27;;;;;;;3.40;100.00;91734.19;4881365;29;20468;-72
2021/12/28 01:47:07;;;;;;;0.83;0.83;;;;;;;3.33;100.00;91728.56;4881460;29;20226;-73
2021/12/28 01:49:35;;;;;;;1.87;1.13;;;;;;;3.38;100.00;91730.91;4881219;29;20218;-72
2021/12/28 01:52:02;;;;;;;0.97;0.97;;;;;;;3.44;100.00;91727.41;4881195;29;20222;-72
2021/12/28 01:54:29;;;;;;;0.80;0.80;;;;;;;3.42;100.00;91734.97;4881244;29;20556;-72
2021/12/28 01:56:58;;;;;;;1.63;0.90;;;;;;;3.43;100.00;91724.13;4881217;29;20564;-72
2021/12/28 01:59:25;;;;;;;1.57;1.57;;;;;;;3.47;100.00;91722.34;4881594;29;20457;-73
2021/12/28 02:01:52;;;;;;;0.87;0.87;;;;;;;3.60;100.00;91726.09;4881160;29;20591;-73
2021/12/28 02:04:22;;;;;;;0.60;0.60;;;;;;;3.69;100.00;91728.31;4881904;29;20218;-72
2021/12/28 02:06:50;;;;;;;1.00;1.00;;;;;;;3.79;100.00;91718.84;4881480;29;20506;-73
2021/12/28 02:09:17;;;;;;;0.70;0.70;;;;;;;3.79;100.00;91729.63;4881368;29;20580;-73
2021/12/28 02:11:45;;;;;;;0.73;0.73;;;;;;;3.75;100.00;91736.44;4882044;29;20540;-72
2021/12/28 02:14:14;;;;;;;1.03;1.03;;;;;;;3.85;100.00;91743.63;4880528;29;20216;-73
2021/12/28 02:16:44;;;;;;;0.90;0.90;;;;;;;3.89;100.00;91745.97;4880197;29;20226;-73
2021/12/28 02:19:14;;;;;;;2.23;1.37;;;;;;;3.68;100.00;91744.97;4880712;29;20467;-73
2021/12/28 02:21:43;;;;;;;5.93;2.60;;;;;;;3.69;100.00;91728.31;4880857;29;20226;-73
2021/12/28 02:24:11;;;;;;;2.23;2.13;;;;;;;3.70;100.00;91742.44;4881760;29;20562;-73
2021/12/28 02:26:39;;;;;;;2.20;2.10;;;;;;;3.48;100.00;91716.50;4880581;29;20556;-73
2021/12/28 02:29:07;;;;;;;2.27;2.00;;;;;;;3.65;100.00;91725.09;4880969;29;20624;-73
2021/12/28 02:31:35;;;;;;;1.83;1.83;;;;;;;3.40;100.00;91716.72;4881098;29;20505;-73
2021/12/28 02:34:04;;;;;;;2.50;2.40;;;;;;;3.42;100.00;91724.16;4880426;29;20483;-73
2021/12/28 02:36:32;;;;;;;1.30;1.30;;;;;;;3.31;100.00;91717.81;4880602;29;20576;-73
2021/12/28 02:39:01;;;;;;;1.40;1.40;;;;;;;3.32;100.00;91721.13;4880823;29;20198;-73
2021/12/28 02:41:28;;;;;;;2.27;2.17;;;;;;;3.27;100.00;91730.41;4880846;29;20610;-73
2021/12/28 02:44:00;;;;;;;1.50;1.50;;;;;;;3.36;100.00;91735.16;4881334;29;20485;-73
2021/12/28 02:46:27;;;;;;;1.63;1.53;;;;;;;3.39;100.00;91729.22;4880484;29;20551;-73
2021/12/28 02:48:54;;;;;;;0.93;0.93;;;;;;;3.28;100.00;91730.38;4880696;29;20506;-73
2021/12/28 02:51:22;;;;;;;0.70;0.70;;;;;;;3.26;100.00;91729.63;4880597;29;20586;-73
2021/12/28 02:53:49;;;;;;;0.60;0.60;;;;;;;3.27;100.00;91725.44;4880253;29;20680;-73
2021/12/28 02:56:20;;;;;;;0.90;0.90;;;;;;;3.21;100.00;91736.41;4880721;29;20638;-73
2021/12/28 02:58:49;;;;;;;0.50;0.50;;;;;;;3.13;100.00;91732.53;4880447;29;20207;-72
2021/12/28 03:01:19;;;;;;;0.50;0.50;;;;;;;3.11;100.00;91729.25;4880386;29;20576;-73
2021/12/28 03:03:48;;;;;;;0.93;0.93;;;;;;;3.19;100.00;91743.16;4880754;29;20650;-73
2021/12/28 03:06:17;;;;;;;1.60;1.23;;;;;;;3.09;100.00;91738.47;4880182;29;20237;-73
2021/12/28 03:08:48;;;;;;;0.70;0.70;;;;;;;2.98;100.00;91736.28;4880729;29;20257;-73
2021/12/28 03:11:16;;;;;;;0.90;0.90;;;;;;;2.93;100.00;91726.41;4880629;29;20663;-73
2021/12/28 03:13:49;;;;;;;1.00;1.00;;;;;;;2.88;100.00;91712.44;4880111;29;20229;-73
2021/12/28 03:16:18;;;;;;;0.60;0.60;;;;;;;2.94;100.00;91717.25;4880049;29;20545;-73
2021/12/28 03:18:47;;;;;;;1.07;1.00;;;;;;;2.95;100.00;91711.41;4879726;29;20203;-73
2021/12/28 03:21:16;;;;;;;0.97;0.57;;;;;;;3.03;100.00;91719.50;4880537;29;20481;-73
2021/12/28 03:23:45;;;;;;;1.10;1.10;;;;;;;3.10;100.00;91725.94;4880461;29;20599;-72
2021/12/28 03:26:13;;;;;;;0.70;0.70;;;;;;;3.08;100.00;91724.34;4879693;29;20485;-73
2021/12/28 03:28:44;;;;;;;1.20;1.20;;;;;;;3.02;100.00;91709.56;4880042;29;20623;-73
2021/12/28 03:31:14;;;;;;;2.33;0.90;;;;;;;3.17;100.00;91729.06;4879475;29;20511;-73
2021/12/28 03:33:43;;;;;;;5.70;1.30;;;;;;;3.16;100.00;91729.91;4880310;29;20482;-73
2021/12/28 03:36:11;;;;;;;6.37;2.27;;;;;;;3.20;100.00;91731.47;4880004;29;20442;-73
2021/12/28 03:38:40;;;;;;;2.90;2.80;;;;;;;3.22;100.00;91729.75;4880125;29;20217;-73
2021/12/28 03:41:08;;;;;;;2.40;2.20;;;;;;;3.15;100.00;91723.31;4879912;29;20482;-73
2021/12/28 03:43:36;;;;;;;3.40;2.27;;;;;;;3.06;100.00;91721.91;4880844;29;20281;-73
2021/12/28 03:46:06;;;;;;;7.00;2.93;;;;;;;2.96;100.00;91722.22;4880196;29;20533;-73
2021/12/28 03:48:33;;;;;;;1.40;1.40;;;;;;;2.88;100.00;91720.75;4879762;29;20260;-73
2021/12/28 03:51:01;;;;;;;4.70;2.00;;;;;;;2.93;100.00;91728.09;4879535;29;20602;-73
2021/12/28 03:53:28;;;;;;;1.33;1.33;;;;;;;2.98;100.00;91716.34;4880142;29;20639;-73
2021/12/28 03:55:55;;;;;;;1.07;1.07;;;;;;;3.09;100.00;91726.00;4880079;29;20225;-73
2021/12/28 03:58:23;;;;;;;1.33;1.33;;;;;;;3.21;100.00;91733.13;4880206;29;20199;-73
2021/12/28 04:00:50;;;;;;;1.20;1.20;;;;;;;3.20;100.00;91733.97;4879587;29;20203;-73
2021/12/28 04:03:20;;;;;;;2.27;2.17;;;;;;;3.16;100.00;91728.25;4879962;29;20583;-73
2021/12/28 04:05:47;;;;;;;3.17;2.93;;;;;;;3.19;100.00;91733.16;4879809;29;20571;-73
2021/12/28 04:08:21;;;;;;;1.90;1.80;;;;;;;3.13;100.00;91723.34;4880645;29;20623;-73
2021/12/28 04:10:52;;;;;;;1.60;1.37;;;;;;;3.13;100.00;91730.03;4879248;29;20266;-73
2021/12/28 04:13:21;;;;;;;1.80;1.73;;;;;;;3.09;100.00;91723.50;4879720;29;20668;-73
2021/12/28 04:15:49;;;;;;;1.87;1.83;;;;;;;3.09;100.00;91729.31;4879347;29;20238;-73
2021/12/28 04:18:19;;;;;;;1.60;1.50;;;;;;;2.95;100.00;91723.88;4879660;29;20210;-73
2021/12/28 04:20:46;;;;;;;1.60;1.60;;;;;;;3.06;100.00;91731.06;4880274;29;20574;-73
2021/12/28 04:23:14;;;;;;;1.70;1.60;;;;;;;3.09;100.00;91730.97;4879704;29;20442;-73
2021/12/28 04:25:41;;;;;;;1.33;1.33;;;;;;;3.14;100.00;91737.47;4879607;29;20517;-73
2021/12/28 04:28:09;;;;;;;2.30;2.20;;;;;;;3.14;100.00;91730.00;4879099;29;20611;-73
2021/12/28 04:30:37;;;;;;;1.90;1.70;;;;;;;3.16;100.00;91723.25;4879355;29;20577;-73
2021/12/28 04:33:05;;;;;;;1.90;1.90;;;;;;;3.14;100.00;91737.47;4879637;29;20467;-73
2021/12/28 04:35:34;;;;;;;1.27;1.27;;;;;;;3.26;100.00;91734.63;4878773;29;20474;-73
2021/12/28 04:38:01;;;;;;;1.47;1.43;;;;;;;3.28;100.00;91739.53;4880358;29;20561;-73
2021/12/28 04:40:29;;;;;;;0.70;0.70;;;;;;;3.23;100.00;91741.38;4882669;29;20572;-72
2021/12/28 04:42:56;;;;;;;0.80;0.80;;;;;;;3.17;100.00;91734.06;4882957;29;20191;-73
2021/12/28 04:45:23;;;;;;;1.43;1.43;;;;;;;3.05;100.00;91721.94;4883045;29;20464;-73
2021/12/28 04:47:51;;;;;;;1.07;0.97;;;;;;;2.89;100.00;91717.41;4882783;29;20603;-73
2021/12/28 04:50:18;;;;;;;2.17;1.43;;;;;;;3.07;100.00;91737.69;4882683;29;20485;-72
2021/12/28 04:52:47;;;;;;;1.43;1.43;;;;;;;3.10;100.00;91738.41;4882977;29;20217;-72
2021/12/28 04:55:16;;;;;;;2.57;2.43;;;;;;;3.18;100.00;91740.69;4882958;29;20583;-73
2021/12/28 04:57:46;;;;;;;2.30;2.20;;;;;;;3.12;100.00;91739.19;4882507;29;20507;-73
2021/12/28 05:00:16;;;;;;;1.17;1.17;;;;;;;3.16;100.00;91743.22;4882946;29;20598;-73
2021/12/28 05:02:43;;;;;;;2.20;2.03;;;;;;;3.19;100.00;91738.16;4882323;29;20482;-73
2021/12/28 05:05:11;;;;;;;1.10;1.10;;;;;;;3.02;100.00;91717.03;4882430;29;20249;-74
2021/12/28 05:07:38;;;;;;;1.43;1.43;;;;;;;3.14;100.00;91736.66;4882546;29;20211;-73
2021/12/28 05:10:08;;;;;;;1.30;1.30;;;;;;;3.14;100.00;91741.66;4882473;29;20230;-73
2021/12/28 05:12:35;;;;;;;1.43;1.43;;;;;;;3.09;100.00;91736.78;4882343;29;20582;-73
2021/12/28 05:15:03;;;;;;;1.27;1.27;;;;;;;3.07;100.00;91742.69;4882033;29;20568;-73
2021/12/28 05:17:33;;;;;;;1.07;1.07;;;;;;;3.08;100.00;91741.81;4882031;29;20501;-73
2021/12/28 05:20:00;;;;;;;1.60;1.60;;;;;;;3.08;100.00;91747.63;4882227;29;20195;-73
2021/12/28 05:22:27;;;;;;;1.67;1.60;;;;;;;3.13;100.00;91755.78;4882296;29;20533;-73
2021/12/28 05:24:55;;;;;;;1.40;1.40;;;;;;;3.08;100.00;91746.81;4882565;29;20525;-73
2021/12/28 05:27:26;;;;;;;1.60;1.50;;;;;;;3.07;100.00;91752.66;4881352;29;20454;-73
2021/12/28 05:29:54;;;;;;;1.60;1.50;;;;;;;3.08;100.00;91755.13;4882403;29;20743;-72
2021/12/28 05:32:21;;;;;;;1.40;1.40;;;;;;;3.14;100.00;91767.41;4881694;29;20572;-74
2021/12/28 05:34:49;;;;;;;3.03;2.93;;;;;;;3.02;100.00;91750.28;4876417;29;20560;-74
2021/12/28 05:37:16;;;;;;;1.63;1.63;;;;;;;3.21;100.00;91770.56;4873675;29;20561;-73
2021/12/28 05:39:44;;;;;;;1.83;1.83;;;;;;;3.17;100.00;91771.47;4872703;29;20579;-75
2021/12/28 05:42:11;;;;;;;1.17;1.17;;;;;;;3.10;100.00;91760.06;4876938;29;20607;-75
2021/12/28 05:44:40;;;;;;;1.57;1.57;;;;;;;3.17;100.00;91761.50;4878146;29;20560;-74
2021/12/28 05:47:07;;;;;;;1.10;1.10;;;;;;;3.22;100.00;91772.97;4871453;29;20600;-74
2021/12/28 05:49:36;;;;;;;1.07;1.07;;;;;;;3.18;100.00;91771.44;4877560;29;20227;-75
2021/12/28 05:52:04;;;;;;;0.80;0.80;;;;;;;3.18;100.00;91763.13;4874946;29;20580;-73
2021/12/28 05:54:31;;;;;;;2.40;1.97;;;;;;;3.27;100.00;91766.19;4874414;29;20552;-74
2021/12/28 05:56:59;;;;;;;1.80;1.80;;;;;;;3.29;100.00;91761.16;4872315;29;20468;-76
2021/12/28 05:59:26;;;;;;;2.30;2.23;;;;;;;3.33;100.00;91763.50;4870478;29;20214;-75
2021/12/28 06:01:55;;;;;;;1.40;1.40;;;;;;;3.44;100.00;91769.84;4879368;29;20552;-75
2021/12/28 06:04:24;;;;;;;2.10;2.10;;;;;;;3.44;100.00;91773.16;4874612;29;20614;-75
2021/12/28 06:06:51;;;;;;;1.47;1.47;;;;;;;3.51;100.00;91768.81;4874317;29;20556;-74
2021/12/28 06:09:18;;;;;;;2.13;2.03;;;;;;;3.49;100.00;91773.06;4876158;29;20561;-73
2021/12/28 06:11:46;;;;;;;3.50;3.20;;;;;;;3.54;100.00;91792.03;4876214;29;20559;-75
2021/12/28 06:14:13;;;;;;;2.83;2.70;;;;;;;3.42;100.00;91774.91;4876999;28;20568;-74
2021/12/28 06:16:40;;;;;;;3.20;2.97;;;;;;;3.51;100.00;91778.81;4876949;29;20612;-73
2021/12/28 06:19:09;;;;;;;2.80;2.70;;;;;;;3.55;100.00;91782.84;4879348;29;20199;-74
2021/12/28 06:21:37;;;;;;;3.53;3.43;;;;;;;3.48;100.00;91777.22;4873161;29;20219;-74
2021/12/28 06:24:07;;;;;;;3.27;3.13;;;;;;;3.47;100.00;91787.25;4870345;29;20494;-73
2021/12/28 06:26:37;;;;;;;2.80;2.63;;;;;;;3.44;100.00;91773.16;4875750;29;20199;-74
2021/12/28 06:29:06;;;;;;;5.37;2.93;;;;;;;3.58;100.00;91792.75;4864614;29;20600;-74
2021/12/28 06:31:34;;;;;;;2.87;2.67;;;;;;;3.51;100.00;91772.13;4869071;29;20628;-73
2021/12/28 06:34:04;;;;;;;5.03;4.57;;;;;;;3.51;100.00;91772.13;4875213;29;20598;-73
2021/12/28 06:36:33;;;;;;;3.60;3.50;;;;;;;3.56;100.00;91787.78;4869032;29;20494;-72
2021/12/28 06:39:00;;;;;;;5.00;4.67;;;;;;;3.60;100.00;91789.34;4876142;29;20576;-73
2021/12/28 06:41:27;;;;;;;6.23;5.90;;;;;;;3.79;100.00;91802.06;4870647;29;20506;-73
2021/12/28 06:43:54;;;;;;;7.87;7.07;;;;;;;3.85;100.00;91806.88;4874654;29;20501;-75
2021/12/28 06:46:22;;;;;;;14.87;9.70;;;;;;;3.92;100.00;91795.03;4865214;29;20588;-74
2021/12/28 06:48:49;;;;;;;13.87;10.63;;;;;;;3.90;100.00;91786.75;4869301;29;20630;-74
2021/12/28 06:51:16;;;;;;;14.30;12.87;;;;;;;4.03;100.00;91801.31;4866281;29;20207;-73
2021/12/28 06:53:47;;;;;;;20.30;12.63;;;;;;;4.07;100.00;91790.34;4866892;29;20510;-74
2021/12/28 06:56:14;;;;;;;11.33;10.47;;;;;;;4.12;100.00;91801.03;4872610;29;20555;-73
2021/12/28 06:58:42;;;;;;;13.93;12.67;;;;;;;4.09;100.00;91796.13;4874201;29;20459;-74
2021/12/28 07:01:12;;;;;;;21.20;15.47;;;;;;;4.13;100.00;91801.84;4877586;29;20233;-74
2021/12/28 07:03:39;;;;;;;15.37;12.97;;;;;;;4.14;100.00;91805.97;4874240;29;20596;-74
2021/12/28 07:06:08;;;;;;;30.53;16.53;;;;;;;4.13;100.00;91797.66;4872904;29;20226;-74
2021/12/28 07:08:37;;;;;;;28.40;18.30;;;;;;;4.24;100.00;91802.31;4877031;29;20554;-75
2021/12/28 07:11:06;;;;;;;39.47;24.20;;;;;;;4.34;100.00;91805.34;4874083;29;20577;-72
2021/12/28 07:13:33;;;;;;;67.93;38.00;;;;;;;4.32;100.00;91812.91;4873516;29;20469;-72
2021/12/28 07:16:01;;;;;;;55.93;33.83;;;;;;;4.36;100.00;91814.44;4872021;29;20504;-73
2021/12/28 07:18:28;;;;;;;53.40;30.23;;;;;;;4.38;100.00;91809.38;4870786;29;20207;-74
2021/12/28 07:20:58;;;;;;;91.13;40.97;;;;;;;4.40;100.00;91808.44;4867230;29;20231;-74
2021/12/28 07:23:25;;;;;;;78.53;39.17;;;;;;;4.34;100.00;91806.16;4871713;29;20592;-73
2021/12/28 07:25:54;;;;;;;66.97;34.97;;;;;;;4.30;100.00;91804.63;4874072;29;20502;-74
2021/12/28 07:28:24;;;;;;;54.57;29.77;;;;;;;4.33;100.00;91799.53;4872355;29;20566;-73
2021/12/28 07:30:53;;;;;;;63.47;31.90;;;;;;;4.41;100.00;91807.59;4866474;29;20602;-72
2021/12/28 07:33:20;;;;;;;52.33;28.03;;;;;;;4.44;100.00;91805.00;4872647;28;20539;-73
2021/12/28 07:35:47;;;;;;;47.33;25.13;;;;;;;4.51;100.00;91805.59;4872349;29;20564;-75
2021/12/28 07:38:15;;;;;;;45.40;26.93;;;;;;;4.58;100.00;91807.84;4867300;29;20230;-75
2021/12/28 07:40:42;;;;;;;31.93;24.07;;;;;;;4.62;100.00;91798.53;4871571;29;20211;-75
2021/12/28 07:43:10;;;;;;;42.43;25.27;;;;;;;4.71;100.00;91803.25;4874781;29;20477;-74
2021/12/28 07:45:39;;;;;;;40.43;25.93;;;;;;;4.75;100.00;91803.97;4870213;29;20469;-75
2021/12/28 07:48:06;;;;;;;37.77;25.87;;;;;;;4.74;100.00;91800.63;4862172;29;20508;-75
2021/12/28 07:50:33;;;;;;;62.73;29.80;;;;;;;4.86;100.00;91806.91;4869001;29;20615;-75
2021/12/28 07:53:01;;;;;;;38.63;23.50;;;;;;;4.94;100.00;91810.78;4868814;29;20229;-75
2021/12/28 07:55:28;;;;;;;28.03;16.23;;;;;;;4.99;100.00;91811.44;4865090;29;20203;-75
2021/12/28 07:57:56;;;;;;;29.13;18.30;;;;;;;5.08;100.00;91802.78;4863816;29;20476;-74
2021/12/28 08:00:25;;;;;;;34.23;20.30;;;;;;;5.19;100.00;91808.22;4863834;29;20621;-73
2021/12/28 08:02:54;;;;;;;27.57;19.90;;;;;;;5.26;100.00;91793.81;4866952;29;20608;-73
2021/12/28 08:05:22;;;;;;;18.53;15.77;;;;;;;5.38;100.00;91795.88;4867857;29;20568;-73
2021/12/28 08:07:49;;;;;;;24.77;16.07;;;;;;;5.51;100.00;91798.75;4865823;29;20203;-73
2021/12/28 08:10:18;;;;;;;16.47;14.60;;;;;;;5.67;100.00;91799.81;4864509;29;20519;-73
2021/12/28 08:12:47;;;;;;;28.17;15.40;;;;;;;5.77;100.00;91798.59;4866003;29;20561;-73
2021/12/28 08:15:14;;;;;;;34.27;20.37;;;;;;;5.94;100.00;91800.47;4868074;29;20528;-73
2021/12/28 08:17:41;;;;;;;25.90;18.73;;;;;;;6.05;100.00;91790.84;4873766;29;20538;-74
2021/12/28 08:20:13;;;;;;;34.20;20.10;;;;;;;6.19;100.00;91793.66;4875013;28;20520;-74
2021/12/28 08:22:41;;;;;;;29.90;18.10;;;;;;;6.30;100.00;91789.03;4873267;29;20579;-74
2021/12/28 08:25:11;;;;;;;34.30;18.83;;;;;;;6.38;100.00;91789.50;4876827;29;20203;-74
2021/12/28 08:27:38;;;;;;;36.17;21.40;;;;;;;6.29;100.00;91772.34;4878399;29;20203;-74
2021/12/28 08:30:09;;;;;;;57.53;28.13;;;;;;;6.38;100.00;91792.00;4872327;29;20635;-73
2021/12/28 08:32:36;;;;;;;53.97;29.50;;;;;;;6.40;100.00;91784.44;4879423;29;20606;-73
2021/12/28 08:35:04;;;;;;;41.07;26.20;;;;;;;6.35;100.00;91774.59;4874259;29;20564;-73
2021/12/28 08:37:33;;;;;;;52.23;25.13;;;;;;;6.56;100.00;91791.28;4874497;29;20230;-73
2021/12/28 08:40:00;;;;;;;57.37;28.13;;;;;;;6.57;100.00;91790.41;4878804;29;20502;-74
2021/12/28 08:42:27;;;;;;;125.03;50.60;;;;;;;6.58;99.58;91794.56;4874155;29;20599;-72
2021/12/28 08:44:55;;;;;;;167.57;70.40;;;;;;;6.49;98.98;91791.59;4877333;29;20572;-73
2021/12/28 08:47:26;;;;;;;43.13;25.43;;;;;;;6.32;99.65;91781.41;4874620;29;20485;-73
2021/12/28 08:49:54;;;;;;;60.20;31.87;;;;;;;6.18;100.00;91767.75;4866057;29;20712;-72
2021/12/28 08:52:24;;;;;;;29.83;19.37;;;;;;;6.12;100.00;91768.00;4876802;29;20533;-72
2021/12/28 08:54:53;;;;;;;32.53;18.90;;;;;;;6.11;100.00;91778.91;4876529;29;20465;-73
2021/12/28 08:57:21;;;;;;;22.20;15.93;;;;;;;6.07;100.00;91769.06;4876389;29;20622;-73
2021/12/28 08:59:49;;;;;;;30.70;18.23;;;;;;;6.12;100.00;91755.47;4876199;29;20195;-73
2021/12/28 09:02:16;;;;;;;27.80;17.93;;;;;;;6.20;100.00;91762.66;4875419;29;20585;-73
2021/12/28 09:04:46;;;;;;;47.27;28.70;;;;;;;6.33;100.00;91758.78;4877159;29;20226;-75
2021/12/28 09:07:14;;;;;;;30.83;17.73;;;;;;;6.46;100.00;91749.88;4876892;29;20609;-73
2021/12/28 09:09:42;;;;;;;27.23;15.63;;;;;;;6.55;100.00;91754.50;4878028;29;20718;-73
2021/12/28 09:12:12;;;;;;;41.13;21.47;;;;;;;6.70;100.00;91754.78;4877961;29;20207;-74
2021/12/28 09:14:39;;;;;;;26.97;17.27;;;;;;;6.81;100.00;91748.41;4876584;29;21761;-74
2021/12/28 09:17:08;;;;;;;38.17;20.67;;;;;;;7.01;100.00;91742.53;4878968;29;20313;-74
2021/12/28 09:19:35;;;;;;;49.23;22.10;;;;;;;7.12;100.00;91747.91;4877998;29;20473;-73
2021/12/28 09:22:03;;;;;;;54.10;28.50;;;;;;;7.29;99.70;91752.19;4877089;29;20710;-73
2021/12/28 09:24:31;;;;;;;73.03;30.40;;;;;;;7.36;98.96;91746.00;4877470;29;20599;-73
2021/12/28 09:26:58;;;;;;;42.33;23.57;;;;;;;7.54;99.00;91742.66;4875073;29;20537;-74
2021/12/28 09:29:29;;;;;;;44.30;25.90;;;;;;;7.64;98.11;91736.34;4877869;29;20647;-74
2021/12/28 09:31:57;;;;;;;42.50;22.87;;;;;;;7.71;97.59;91740.22;4875815;29;20591;-73
2021/12/28 09:34:24;;;;;;;43.10;24.27;;;;;;;7.82;96.91;91730.47;4877612;29;20200;-75
2021/12/28 09:36:52;;;;;;;46.73;22.20;;;;;;;7.98;96.63;91725.53;4878345;29;20198;-74
2021/12/28 09:39:22;;;;;;;27.20;16.10;;;;;;;8.20;95.97;91743.75;4874527;29;20599;-74
2021/12/28 09:41:51;;;;;;;14.93;12.23;;;;;;;8.28;95.54;91733.31;4872850;29;20675;-74
2021/12/28 09:44:19;;;;;;;14.93;13.03;;;;;;;8.45;94.82;91743.38;4871522;29;20278;-74
2021/12/28 09:46:48;;;;;;;13.93;12.17;;;;;;;8.53;94.32;91728.72;4875996;29;20529;-73
2021/12/28 09:49:15;;;;;;;36.27;18.27;;;;;;;8.60;93.70;91719.19;4876453;29;20614;-74
2021/12/28 09:51:42;;;;;;;27.30;15.43;;;;;;;8.80;93.29;91733.28;4874145;29;20559;-74
2021/12/28 09:54:10;;;;;;;28.57;16.40;;;;;;;8.90;92.58;91731.94;4872481;29;20490;-74
2021/12/28 09:56:37;;;;;;;35.90;17.13;;;;;;;9.09;91.92;91735.13;4877248;29;20485;-74
2021/12/28 09:59:05;;;;;;;40.77;20.10;;;;;;;9.21;91.39;91743.78;4867327;29;20579;-74
2021/12/28 10:01:32;;;;;;;34.20;18.23;;;;;;;9.32;89.75;91737.28;4872927;29;20598;-75
2021/12/28 10:04:01;;;;;;;39.13;18.90;;;;;;;9.35;88.96;91734.59;4876486;29;20207;-74
2021/12/28 10:06:30;;;;;;;30.60;14.27;;;;;;;9.54;88.68;91740.31;4872951;29;20708;-75
2021/12/28 10:09:09;;;;;;;26.77;14.50;;;;;;;9.81;86.99;91717.03;4871867;29;20572;-75
2021/12/28 10:11:38;;;;;;;21.53;13.97;;;;;;;10.46;84.99;91743.72;4876927;29;20552;-75
2021/12/28 10:14:18;;;;;;;97.23;39.87;;;;;;;11.07;82.69;91750.31;4875393;29;20206;-75
2021/12/28 10:16:49;;;;;;;29.93;15.57;;;;;;;11.61;80.59;91749.53;4871503;29;20551;-75
2021/12/28 10:19:36;;;;;;;33.33;15.37;;;;;;;12.36;77.95;91760.13;4870358;29;20599;-76
2021/12/28 10:22:29;;;;;;;32.97;17.45;;;;;;;13.15;75.52;91760.91;4872169;29;20286;-74
2021/12/28 10:25:00;;;;;;;35.67;19.20;;;;;;;13.98;73.23;91753.56;4862436;29;20553;-74
2021/12/28 10:27:30;;;;;;;17.50;11.65;;;;;;;14.84;68.43;91784.72;4869954;29;20494;-74
2021/12/28 10:30:06;;;;;;;23.10;13.25;;;;;;;15.62;65.40;91775.53;4870691;29;20619;-74
2021/12/28 10:32:34;;;;;;;16.40;10.73;;;;;;;16.33;63.88;91778.59;4867586;29;20481;-75
2021/12/28 10:35:07;;;;;;;20.45;11.65;;;;;;;17.19;61.10;91770.84;4874290;29;20643;-74
2021/12/28 10:37:37;;;;;;;7.60;6.75;;;;;;;18.07;56.79;91781.41;4872041;29;20232;-75
2021/12/28 10:40:09;;;;;;;12.52;9.30;;;;;;;18.45;56.02;91767.91;4871307;29;20479;-75
2021/12/28 10:42:53;;;;;;;14.77;10.68;;;;;;;18.70;52.06;91776.84;4870304;29;20203;-75
2021/12/28 10:45:22;;;;;;;20.02;10.60;;;;;;;18.73;51.45;91772.28;4872654;29;20640;-75
2021/12/28 10:47:53;;;;;;;9.88;9.05;;;;;;;18.37;51.84;91771.09;4872180;29;20206;-75
2021/12/28 10:50:30;;;;;;;15.70;11.48;;;;;;;17.99;52.79;91760.78;4873258;29;20614;-74
2021/12/28 10:53:10;;;;;;;7.03;6.57;;;;;;;17.21;53.76;91744.28;4876140;29;20662;-74
2021/12/28 10:55:38;;;;;;;5.03;4.65;;;;;;;16.72;55.72;91733.88;4868938;29;20599;-74
2021/12/28 10:58:06;;;;;;;3.40;3.25;;;;;;;16.23;56.59;91730.06;4868408;29;20207;-74
2021/12/28 11:00:37;;;;;;;13.40;8.57;;;;;;;15.92;57.18;91721.44;4873625;29;20508;-74
2021/12/28 11:03:20;;;;;;;4.32;4.03;;;;;;;15.73;57.74;91708.50;4870791;29;20492;-76
2021/12/28 11:05:50;;;;;;;4.38;3.97;;;;;;;15.78;58.33;91703.84;4870298;29;20583;-75
2021/12/28 11:08:19;;;;;;;3.03;2.83;;;;;;;15.83;58.11;91716.25;4874421;29;20538;-75
2021/12/28 11:10:49;;;;;;;4.68;4.28;;;;;;;15.66;57.81;91704.81;4871542;29;20596;-75
2021/12/28 11:13:19;;;;;;;10.52;7.72;;;;;;;15.16;59.04;91694.13;4872005;29;20580;-75
2021/12/28 11:15:47;;;;;;;5.30;4.53;;;;;;;14.49;60.78;91680.50;4875793;29;20595;-74
2021/12/28 11:18:20;;;;;;;14.18;10.38;;;;;;;13.95;62.66;91675.06;4874348;29;20204;-74
2021/12/28 11:20:49;;;;;;;12.88;10.23;;;;;;;13.36;64.54;91658.91;4872634;29;20199;-75
2021/12/28 11:23:19;;;;;;;23.50;10.80;;;;;;;13.00;65.79;91662.19;4869840;29;20477;-74
2021/12/28 11:26:08;;;;;;;8.05;7.28;;;;;;;12.70;67.54;91658.25;4871595;29;20479;-73
2021/12/28 11:28:36;;;;;;;8.53;7.70;;;;;;;12.35;68.60;91652.94;4874539;29;20589;-74
2021/12/28 11:31:15;;;;;;;11.18;7.93;;;;;;;12.20;70.05;91650.59;4869683;29;20254;-75
2021/12/28 11:33:49;;;;;;;7.50;6.90;;;;;;;12.11;70.50;91657.06;4870680;29;20238;-75
2021/12/28 11:36:21;;;;;;;9.50;8.00;;;;;;;12.02;71.45;91650.84;4870249;29;20218;-74